Time;durP1;ratioP1;P1;durP2;ratioP2;P2;SDS_P1;SDS_P2;PMS_P1;PMS_P2;Temp;Humidity;BMP_temperature;BMP_pressure;BME280_temperature;BME280_humidity;BME280_pressure;Samples;Min_cycle;Max_cycle;Signal;HPM_P1;HPM_P2
2022/01/22 00:01:49;;;;;;;16.73;3.58;;;;;;;;;;5010625;28;20145;-60
2022/01/22 00:04:15;;;;;;;20.20;3.22;;;;;;;;;;5011486;28;20117;-60
2022/01/22 00:06:42;;;;;;;19.98;2.92;;;;;;;;;;5010614;28;20046;-60
2022/01/22 00:09:08;;;;;;;38.13;4.57;;;;;;;;;;5011579;28;20144;-61
2022/01/22 00:11:38;;;;;;;29.15;4.57;;;;;;;;;;5011077;28;20125;-60
2022/01/22 00:14:23;;;;;;;23.38;3.30;;;;;;;;;;5009239;28;20100;-60
2022/01/22 00:16:49;;;;;;;25.10;3.72;;;;;;;;;;5010554;28;20045;-60
2022/01/22 00:19:16;;;;;;;37.78;3.55;;;;;;;;;;5012018;28;20393;-60
2022/01/22 00:21:42;;;;;;;31.60;3.40;;;;;;;;;;5011473;28;20504;-61
2022/01/22 00:24:11;;;;;;;22.23;3.28;;;;;;;;;;5010744;28;20049;-60
2022/01/22 00:26:37;;;;;;;29.27;4.50;;;;;;;;;;5009578;28;20065;-61
2022/01/22 00:29:03;;;;;;;33.15;3.22;;;;;;;;;;5010243;28;20476;-60
2022/01/22 00:31:32;;;;;;;23.90;3.95;;;;;;;;;;5010047;28;20445;-60
2022/01/22 00:33:58;;;;;;;36.80;5.57;;;;;;;;;;5006339;28;20054;-61
2022/01/22 00:36:24;;;;;;;31.40;3.65;;;;;;;;;;5004664;28;20042;-61
2022/01/22 00:38:50;;;;;;;23.48;2.97;;;;;;;;;;5006185;28;20049;-60
2022/01/22 00:41:17;;;;;;;38.38;5.28;;;;;;;;;;5007149;28;20489;-61
2022/01/22 00:43:43;;;;;;;25.77;3.40;;;;;;;;;;5009777;28;20470;-60
2022/01/22 00:46:09;;;;;;;32.67;5.25;;;;;;;;;;5010389;28;20469;-60
2022/01/22 00:48:35;;;;;;;23.73;2.78;;;;;;;;;;5010791;28;20042;-60
2022/01/22 00:51:01;;;;;;;31.33;4.45;;;;;;;;;;5011441;28;20111;-60
2022/01/22 00:53:27;;;;;;;35.45;4.15;;;;;;;;;;5010661;28;20049;-60
2022/01/22 00:55:53;;;;;;;24.38;3.08;;;;;;;;;;5010998;28;20046;-60
2022/01/22 00:58:20;;;;;;;28.77;4.70;;;;;;;;;;5010944;28;20385;-60
2022/01/22 01:00:46;;;;;;;23.15;2.90;;;;;;;;;;5010658;28;20140;-60
2022/01/22 01:03:12;;;;;;;23.70;3.08;;;;;;;;;;5011397;28;20045;-60
2022/01/22 01:05:38;;;;;;;27.95;4.50;;;;;;;;;;5010399;28;20057;-60
2022/01/22 01:08:06;;;;;;;26.80;3.00;;;;;;;;;;5009543;28;20050;-60
2022/01/22 01:10:32;;;;;;;24.85;3.72;;;;;;;;;;5009528;28;20054;-61
2022/01/22 01:12:58;;;;;;;21.95;2.38;;;;;;;;;;5010324;28;20056;-61
2022/01/22 01:15:42;;;;;;;19.30;2.33;;;;;;;;;;5009443;28;20045;-60
2022/01/22 01:34:22;;;;;;;23.65;1.88;;;;;;;;;;5005412;28;20049;-60
2022/01/22 01:36:49;;;;;;;21.08;2.10;;;;;;;;;;5010595;28;20840;-60
2022/01/22 01:39:22;;;;;;;20.92;2.45;;;;;;;;;;5010692;28;20125;-60
2022/01/22 01:42:01;;;;;;;12.98;2.20;;;;;;;;;;5007344;28;20136;-60
2022/01/22 01:44:27;;;;;;;19.40;2.65;;;;;;;;;;5002302;28;20113;-60
2022/01/22 01:46:57;;;;;;;18.80;2.30;;;;;;;;;;5010651;28;20092;-61
2022/01/22 01:49:23;;;;;;;20.80;2.90;;;;;;;;;;5009749;28;20046;-60
2022/01/22 01:51:50;;;;;;;22.77;3.00;;;;;;;;;;5009155;28;20049;-60
2022/01/22 01:54:30;;;;;;;21.05;3.20;;;;;;;;;;5010792;28;20062;-60
2022/01/22 01:59:43;;;;;;;24.00;2.65;;;;;;;;;;5012356;28;20050;-60
2022/01/22 02:02:09;;;;;;;20.02;2.25;;;;;;;;;;5013611;28;20054;-61
2022/01/22 02:04:36;;;;;;;18.17;2.85;;;;;;;;;;5014445;28;20041;-60
2022/01/22 02:07:02;;;;;;;17.20;2.40;;;;;;;;;;5014135;28;20061;-60
2022/01/22 02:09:28;;;;;;;21.00;2.45;;;;;;;;;;5013205;28;20050;-60
2022/01/22 02:12:16;;;;;;;20.90;2.58;;;;;;;;;;5011580;28;20038;-60
2022/01/22 02:25:41;;;;;;;19.13;1.98;;;;;;;;;;5013951;28;20093;-60
2022/01/22 02:28:07;;;;;;;19.45;1.63;;;;;;;;;;5013764;28;20120;-60
2022/01/22 02:30:37;;;;;;;13.20;1.60;;;;;;;;;;5011804;28;20440;-60
2022/01/22 02:33:16;;;;;;;8.68;1.77;;;;;;;;;;5012391;28;20421;-60
2022/01/22 02:35:50;;;;;;;19.60;1.90;;;;;;;;;;5013969;28;20034;-60
2022/01/22 02:38:23;;;;;;;9.20;1.67;;;;;;;;;;5009623;28;20053;-60
2022/01/22 02:40:50;;;;;;;16.48;1.60;;;;;;;;;;5014054;28;20077;-60
2022/01/22 02:43:17;;;;;;;15.05;2.45;;;;;;;;;;5013571;28;20034;-60
2022/01/22 02:45:45;;;;;;;18.80;1.88;;;;;;;;;;5011945;28;20046;-60
2022/01/22 02:48:12;;;;;;;16.33;1.83;;;;;;;;;;5006295;28;20207;-60
2022/01/22 02:50:38;;;;;;;16.30;2.25;;;;;;;;;;5007305;28;21087;-60
2022/01/22 02:53:05;;;;;;;15.23;2.20;;;;;;;;;;5007070;28;20042;-60
2022/01/22 02:55:31;;;;;;;24.88;2.42;;;;;;;;;;5013285;28;20045;-60
2022/01/22 02:57:57;;;;;;;22.40;2.00;;;;;;;;;;5013179;28;20069;-60
2022/01/22 03:00:25;;;;;;;18.98;2.88;;;;;;;;;;5012069;28;20038;-60
2022/01/22 03:02:51;;;;;;;14.90;1.48;;;;;;;;;;5009812;28;20050;-61
2022/01/22 03:05:18;;;;;;;18.52;1.92;;;;;;;;;;5009623;28;20442;-61
2022/01/22 03:07:51;;;;;;;15.60;2.17;;;;;;;;;;5011328;28;20038;-61
2022/01/22 03:10:24;;;;;;;17.45;1.98;;;;;;;;;;5010880;28;20042;-61
2022/01/22 03:20:38;;;;;;;21.95;2.53;;;;;;;;;;5011107;28;20096;-60
2022/01/22 03:27:18;;;;;;;13.10;1.80;;;;;;;;;;5010035;28;20046;-61
2022/01/22 03:28:54;;;;;;;20.35;1.80;;;;;;;;;;5010579;28;20053;-61
2022/01/22 03:31:20;;;;;;;13.05;2.10;;;;;;;;;;5010845;28;20052;-60
2022/01/22 03:33:46;;;;;;;9.48;1.38;;;;;;;;;;5009157;28;20050;-60
2022/01/22 03:36:13;;;;;;;16.63;1.27;;;;;;;;;;5010939;28;20127;-60
2022/01/22 03:38:40;;;;;;;10.27;1.40;;;;;;;;;;5011603;28;20048;-60
2022/01/22 03:41:06;;;;;;;12.20;1.30;;;;;;;;;;5008437;28;20124;-61
2022/01/22 03:43:32;;;;;;;15.27;1.42;;;;;;;;;;5011593;28;21486;-60
2022/01/22 03:45:58;;;;;;;6.22;1.15;;;;;;;;;;5011105;28;20092;-60
2022/01/22 03:48:24;;;;;;;18.20;1.45;;;;;;;;;;5010728;28;20054;-61
2022/01/22 03:50:50;;;;;;;16.42;1.65;;;;;;;;;;5011267;28;20449;-60
2022/01/22 03:53:17;;;;;;;11.32;1.20;;;;;;;;;;5011532;28;20042;-60
2022/01/22 03:58:11;;;;;;;13.18;1.75;;;;;;;;;;5005865;28;20049;-60
2022/01/22 04:00:37;;;;;;;16.23;2.05;;;;;;;;;;5005926;28;20045;-61
2022/01/22 04:06:12;;;;;;;13.55;1.58;;;;;;;;;;5009622;28;20068;-61
2022/01/22 04:08:36;;;;;;;20.52;1.67;;;;;;;;;;5009495;28;20049;-60
2022/01/22 04:11:03;;;;;;;17.70;1.52;;;;;;;;;;5011909;28;20490;-60
2022/01/22 04:13:33;;;;;;;20.80;2.13;;;;;;;;;;5012000;28;20052;-60
2022/01/22 04:16:00;;;;;;;18.02;1.85;;;;;;;;;;5011213;28;20449;-60
2022/01/22 04:26:52;;;;;;;17.17;1.65;;;;;;;;;;5011790;28;20037;-60
2022/01/22 04:29:19;;;;;;;11.73;1.98;;;;;;;;;;5011665;28;20747;-60
2022/01/22 04:31:45;;;;;;;17.55;2.25;;;;;;;;;;5009573;28;20037;-60
2022/01/22 04:34:11;;;;;;;14.52;2.38;;;;;;;;;;5011476;28;20040;-61
2022/01/22 04:36:38;;;;;;;18.83;2.83;;;;;;;;;;5008123;28;20077;-60
2022/01/22 04:39:04;;;;;;;19.25;1.90;;;;;;;;;;5011174;28;20084;-61
2022/01/22 04:41:30;;;;;;;10.82;1.58;;;;;;;;;;5011445;28;20048;-60
2022/01/22 04:43:58;;;;;;;11.10;1.65;;;;;;;;;;5010484;28;20180;-60
2022/01/22 04:46:37;;;;;;;10.52;1.75;;;;;;;;;;5009631;28;20041;-61
2022/01/22 04:49:12;;;;;;;20.75;2.95;;;;;;;;;;5009959;28;20064;-60
2022/01/22 04:57:07;;;;;;;15.30;1.73;;;;;;;;;;5007911;28;20041;-61
2022/01/22 04:59:33;;;;;;;14.73;2.17;;;;;;;;;;5010396;28;20209;-60
2022/01/22 05:02:00;;;;;;;10.13;1.48;;;;;;;;;;5006234;28;20042;-60
2022/01/22 05:04:26;;;;;;;10.13;1.85;;;;;;;;;;5001639;28;20045;-60
2022/01/22 05:06:52;;;;;;;9.65;1.80;;;;;;;;;;5004567;28;20041;-60
2022/01/22 05:09:18;;;;;;;9.60;1.80;;;;;;;;;;5010454;28;20475;-61
2022/01/22 05:11:44;;;;;;;15.68;1.42;;;;;;;;;;5009835;28;20069;-61
2022/01/22 05:14:10;;;;;;;9.63;1.80;;;;;;;;;;5008105;28;20538;-60
2022/01/22 05:16:37;;;;;;;15.48;1.75;;;;;;;;;;5011289;28;20034;-60
2022/01/22 05:19:16;;;;;;;18.13;2.05;;;;;;;;;;5008469;28;20049;-60
2022/01/22 05:21:44;;;;;;;12.60;1.60;;;;;;;;;;5010529;28;20386;-60
2022/01/22 05:24:15;;;;;;;11.43;1.90;;;;;;;;;;5009292;28;20057;-60
2022/01/22 05:27:12;;;;;;;14.82;2.00;;;;;;;;;;5010155;28;20057;-60
2022/01/22 05:32:27;;;;;;;19.52;2.47;;;;;;;;;;5002552;28;20233;-61
2022/01/22 05:37:38;;;;;;;10.52;2.45;;;;;;;;;;5009281;28;20054;-60
2022/01/22 05:40:04;;;;;;;11.38;1.83;;;;;;;;;;5009917;28;20038;-60
2022/01/22 05:42:31;;;;;;;12.02;1.58;;;;;;;;;;5010763;28;20042;-60
2022/01/22 05:44:57;;;;;;;18.70;1.38;;;;;;;;;;5006474;28;20046;-60
2022/01/22 05:47:26;;;;;;;12.75;1.42;;;;;;;;;;5009861;28;20615;-60
2022/01/22 05:49:53;;;;;;;9.38;1.38;;;;;;;;;;5010799;28;20044;-60
2022/01/22 05:52:28;;;;;;;16.20;1.35;;;;;;;;;;5010971;28;20042;-60
2022/01/22 05:55:24;;;;;;;15.05;1.42;;;;;;;;;;5010272;28;20136;-60
2022/01/22 06:00:26;;;;;;;16.98;1.42;;;;;;;;;;5010577;28;20046;-61
2022/01/22 06:02:52;;;;;;;13.27;1.45;;;;;;;;;;5009769;28;20042;-61
2022/01/22 06:05:19;;;;;;;14.13;1.52;;;;;;;;;;5010441;28;20042;-61
2022/01/22 06:07:45;;;;;;;16.20;2.03;;;;;;;;;;5010094;28;20384;-60
2022/01/22 06:10:17;;;;;;;13.48;1.77;;;;;;;;;;5009472;28;20038;-61
2022/01/22 06:15:10;;;;;;;20.08;1.65;;;;;;;;;;5008557;28;20572;-60
2022/01/22 06:17:36;;;;;;;14.70;2.53;;;;;;;;;;5009548;28;20037;-61
2022/01/22 06:20:02;;;;;;;12.35;1.92;;;;;;;;;;5009642;28;20049;-60
2022/01/22 06:22:28;;;;;;;12.60;1.60;;;;;;;;;;5024403;28;20142;-61
2022/01/22 06:24:55;;;;;;;15.25;1.20;;;;;;;;;;5008609;28;20133;-60
2022/01/22 06:27:21;;;;;;;7.80;1.25;;;;;;;;;;5007329;28;20116;-60
2022/01/22 06:29:47;;;;;;;9.63;1.02;;;;;;;;;;5006254;28;20053;-61
2022/01/22 06:32:13;;;;;;;8.52;2.60;;;;;;;;;;5010506;28;20038;-60
2022/01/22 06:34:40;;;;;;;10.98;1.60;;;;;;;;;;5002040;28;20049;-60
2022/01/22 06:37:06;;;;;;;10.15;1.38;;;;;;;;;;5009237;28;20061;-60
2022/01/22 06:39:41;;;;;;;13.07;1.23;;;;;;;;;;5010243;28;20049;-61
2022/01/22 06:42:07;;;;;;;9.07;1.10;;;;;;;;;;5010423;28;20186;-60
2022/01/22 06:44:34;;;;;;;13.40;1.58;;;;;;;;;;5008274;28;20497;-61
2022/01/22 06:47:01;;;;;;;7.43;1.27;;;;;;;;;;5013667;28;20405;-60
2022/01/22 06:49:27;;;;;;;10.02;1.65;;;;;;;;;;5013748;28;20057;-61
2022/01/22 06:51:54;;;;;;;23.23;2.33;;;;;;;;;;5012275;28;20044;-60
2022/01/22 06:54:21;;;;;;;14.65;1.55;;;;;;;;;;5013151;28;20050;-61
2022/01/22 06:56:48;;;;;;;9.63;1.27;;;;;;;;;;5013705;28;20049;-61
2022/01/22 06:59:14;;;;;;;13.27;1.50;;;;;;;;;;5012673;28;20042;-61
2022/01/22 07:01:40;;;;;;;16.45;1.85;;;;;;;;;;5013165;28;20040;-60
2022/01/22 07:04:07;;;;;;;13.18;2.13;;;;;;;;;;5013241;28;20084;-60
2022/01/22 07:06:33;;;;;;;10.75;1.58;;;;;;;;;;5012338;28;20045;-61
2022/01/22 07:08:59;;;;;;;11.43;2.10;;;;;;;;;;5012563;28;20061;-61
2022/01/22 07:11:26;;;;;;;14.40;2.50;;;;;;;;;;5012508;28;20042;-61
2022/01/22 07:13:52;;;;;;;21.77;2.15;;;;;;;;;;5012484;28;20038;-67
2022/01/22 07:16:18;;;;;;;12.88;2.20;;;;;;;;;;5040867;28;20391;-61
2022/01/22 07:18:44;;;;;;;15.25;2.20;;;;;;;;;;5007671;28;20061;-60
2022/01/22 07:21:18;;;;;;;20.83;2.08;;;;;;;;;;5012125;28;20168;-60
2022/01/22 07:26:18;;;;;;;16.83;2.28;;;;;;;;;;5009863;28;20367;-61
2022/01/22 07:28:45;;;;;;;12.50;1.85;;;;;;;;;;5010180;28;20045;-63
2022/01/22 07:31:11;;;;;;;15.15;2.67;;;;;;;;;;5009457;28;20056;-62
2022/01/22 07:33:37;;;;;;;12.13;2.25;;;;;;;;;;5004948;28;20176;-63
2022/01/22 07:36:04;;;;;;;18.92;2.47;;;;;;;;;;5007849;28;20044;-62
2022/01/22 07:38:31;;;;;;;19.90;2.95;;;;;;;;;;5012523;28;20500;-63
2022/01/22 07:40:57;;;;;;;12.13;2.35;;;;;;;;;;5010863;28;20109;-63
2022/01/22 07:43:23;;;;;;;16.60;3.47;;;;;;;;;;5013547;28;20042;-63
2022/01/22 07:45:49;;;;;;;18.02;2.85;;;;;;;;;;5009902;28;20050;-63
2022/01/22 07:48:15;;;;;;;18.60;3.30;;;;;;;;;;5009849;28;20069;-63
2022/01/22 07:50:41;;;;;;;20.05;3.00;;;;;;;;;;5010705;28;20108;-62
2022/01/22 07:53:07;;;;;;;19.58;3.00;;;;;;;;;;5011480;28;20051;-63
2022/01/22 07:55:34;;;;;;;21.50;2.97;;;;;;;;;;5011359;28;20137;-62
2022/01/22 07:58:00;;;;;;;18.25;3.08;;;;;;;;;;5008347;28;20046;-62
2022/01/22 08:00:26;;;;;;;19.35;4.38;;;;;;;;;;5010275;28;20081;-63
2022/01/22 08:02:52;;;;;;;14.90;2.40;;;;;;;;;;5010227;28;20136;-62
2022/01/22 08:05:18;;;;;;;21.70;4.70;;;;;;;;;;5011412;28;20045;-62
2022/01/22 08:07:44;;;;;;;14.88;2.50;;;;;;;;;;5010875;28;20113;-63
2022/01/22 08:10:12;;;;;;;18.10;2.78;;;;;;;;;;5011160;28;20056;-63
2022/01/22 08:12:39;;;;;;;17.75;3.15;;;;;;;;;;5011792;28;20221;-63
2022/01/22 08:15:06;;;;;;;18.15;2.75;;;;;;;;;;5011089;28;20089;-63
2022/01/22 08:17:32;;;;;;;15.98;2.20;;;;;;;;;;5007723;28;20056;-63
2022/01/22 08:19:58;;;;;;;16.00;2.55;;;;;;;;;;5011675;28;20424;-63
2022/01/22 08:22:25;;;;;;;9.75;2.05;;;;;;;;;;5010758;28;20490;-63
2022/01/22 08:24:53;;;;;;;17.92;2.15;;;;;;;;;;5012186;28;20037;-63
2022/01/22 08:29:54;;;;;;;19.80;2.60;;;;;;;;;;5042400;28;20056;-63
2022/01/22 08:32:56;;;;;;;17.50;2.63;;;;;;;;;;5010397;28;20057;-63
2022/01/22 08:38:03;;;;;;;14.43;2.47;;;;;;;;;;5040281;28;20054;-63
2022/01/22 08:40:29;;;;;;;16.50;2.17;;;;;;;;;;5011564;28;20037;-63
2022/01/22 08:42:55;;;;;;;20.55;2.13;;;;;;;;;;5010669;28;20034;-63
2022/01/22 08:45:21;;;;;;;19.63;2.97;;;;;;;;;;5011589;28;20095;-63
2022/01/22 08:47:47;;;;;;;16.25;1.60;;;;;;;;;;5010005;28;20088;-63
2022/01/22 08:50:14;;;;;;;17.13;2.08;;;;;;;;;;5010224;28;20033;-63
2022/01/22 08:52:40;;;;;;;10.75;1.70;;;;;;;;;;5011087;28;20125;-63
2022/01/22 08:55:06;;;;;;;16.20;2.20;;;;;;;;;;5009817;28;20041;-62
2022/01/22 08:57:32;;;;;;;18.95;2.33;;;;;;;;;;5010236;28;20042;-63
2022/01/22 08:59:59;;;;;;;13.95;2.45;;;;;;;;;;4993364;28;20540;-63
2022/01/22 09:02:25;;;;;;;12.98;2.58;;;;;;;;;;5009715;28;20053;-63
2022/01/22 09:04:53;;;;;;;20.90;2.15;;;;;;;;;;5010173;28;20145;-63
2022/01/22 09:07:19;;;;;;;14.30;1.98;;;;;;;;;;5008729;28;20113;-63
2022/01/22 09:09:48;;;;;;;9.88;1.80;;;;;;;;;;5010537;28;20382;-63
2022/01/22 09:12:15;;;;;;;13.30;2.33;;;;;;;;;;5007805;28;20042;-63
2022/01/22 09:14:41;;;;;;;11.82;1.33;;;;;;;;;;5010793;28;20069;-63
2022/01/22 09:17:07;;;;;;;10.90;2.05;;;;;;;;;;5011432;28;20050;-63
2022/01/22 09:19:34;;;;;;;8.88;1.65;;;;;;;;;;5010854;28;20044;-63
2022/01/22 09:22:03;;;;;;;11.05;1.38;;;;;;;;;;5010489;28;20049;-62
2022/01/22 09:24:29;;;;;;;11.65;1.80;;;;;;;;;;5010581;28;20458;-62
2022/01/22 09:26:58;;;;;;;8.13;1.70;;;;;;;;;;5009706;28;20450;-63
2022/01/22 09:29:24;;;;;;;17.02;1.85;;;;;;;;;;5008854;28;20049;-62
2022/01/22 09:31:51;;;;;;;6.32;1.35;;;;;;;;;;5008455;28;20042;-62
2022/01/22 09:34:17;;;;;;;10.35;2.03;;;;;;;;;;5008999;28;20067;-62
2022/01/22 09:36:43;;;;;;;16.17;1.90;;;;;;;;;;5011123;28;20116;-62
2022/01/22 09:39:09;;;;;;;6.18;1.65;;;;;;;;;;5010142;28;20049;-63
2022/01/22 09:41:36;;;;;;;7.88;1.67;;;;;;;;;;5010112;28;20056;-62
2022/01/22 09:44:02;;;;;;;14.85;1.73;;;;;;;;;;5009444;28;20363;-63
2022/01/22 09:46:29;;;;;;;14.63;2.10;;;;;;;;;;5008624;28;20048;-63
2022/01/22 09:48:56;;;;;;;10.13;1.67;;;;;;;;;;5008722;28;20081;-63
2022/01/22 09:51:22;;;;;;;11.50;1.88;;;;;;;;;;5008595;28;20073;-63
2022/01/22 09:53:48;;;;;;;16.80;2.10;;;;;;;;;;5009146;28;20038;-63
2022/01/22 09:56:17;;;;;;;20.10;2.50;;;;;;;;;;5008378;28;20367;-62
2022/01/22 09:58:44;;;;;;;14.60;2.75;;;;;;;;;;5006877;28;20081;-63
2022/01/22 10:01:26;;;;;;;14.63;2.83;;;;;;;;;;5009547;28;20385;-63
2022/01/22 10:03:54;;;;;;;29.63;4.95;;;;;;;;;;5038908;28;20073;-63
2022/01/22 10:06:22;;;;;;;16.25;3.38;;;;;;;;;;5010153;28;20489;-64
2022/01/22 10:08:51;;;;;;;18.73;3.42;;;;;;;;;;5037831;28;20133;-61
2022/01/22 10:11:20;;;;;;;17.48;3.92;;;;;;;;;;5010163;28;20399;-61
2022/01/22 10:13:47;;;;;;;19.50;3.70;;;;;;;;;;5010209;28;20670;-63
2022/01/22 10:16:16;;;;;;;17.48;3.47;;;;;;;;;;5009302;28;20034;-63
2022/01/22 10:18:43;;;;;;;18.80;3.42;;;;;;;;;;5008283;28;20062;-64
2022/01/22 10:21:11;;;;;;;22.60;3.67;;;;;;;;;;5011910;28;20125;-64
2022/01/22 10:23:39;;;;;;;18.88;3.75;;;;;;;;;;5012779;28;20092;-63
2022/01/22 10:26:07;;;;;;;18.98;3.15;;;;;;;;;;5013563;28;20455;-63
2022/01/22 10:28:46;;;;;;;20.83;4.15;;;;;;;;;;5012477;28;20069;-63
2022/01/22 10:31:29;;;;;;;18.08;3.83;;;;;;;;;;5027816;28;20042;-63
2022/01/22 10:34:03;;;;;;;16.35;2.88;;;;;;;;;;5010861;28;20050;-63
2022/01/22 10:36:29;;;;;;;18.50;3.30;;;;;;;;;;5006531;28;20717;-63
2022/01/22 10:38:55;;;;;;;18.38;3.38;;;;;;;;;;5010886;28;20073;-63
2022/01/22 10:41:33;;;;;;;16.45;3.22;;;;;;;;;;5012573;28;20042;-63
2022/01/22 10:44:01;;;;;;;15.73;3.53;;;;;;;;;;5011093;28;20046;-64
2022/01/22 10:46:34;;;;;;;18.13;2.65;;;;;;;;;;5012825;28;20042;-62
2022/01/22 10:49:02;;;;;;;16.73;3.47;;;;;;;;;;5010110;28;20151;-63
2022/01/22 10:51:29;;;;;;;21.27;3.28;;;;;;;;;;5017723;28;20072;-61
2022/01/22 10:53:58;;;;;;;19.52;3.30;;;;;;;;;;5019063;28;20037;-62
2022/01/22 10:56:26;;;;;;;12.85;2.85;;;;;;;;;;5016165;28;20056;-61
2022/01/22 10:58:53;;;;;;;19.20;4.00;;;;;;;;;;5009509;28;20462;-61
2022/01/22 11:01:20;;;;;;;16.70;2.55;;;;;;;;;;5008180;28;20037;-61
2022/01/22 11:03:46;;;;;;;16.23;2.92;;;;;;;;;;5040163;28;20038;-61
2022/01/22 11:06:27;;;;;;;18.42;2.72;;;;;;;;;;5005183;28;20048;-61
2022/01/22 11:08:53;;;;;;;12.23;2.15;;;;;;;;;;5003485;28;20108;-62
2022/01/22 11:11:20;;;;;;;13.77;2.60;;;;;;;;;;5000276;28;20058;-61
2022/01/22 11:13:46;;;;;;;16.45;2.25;;;;;;;;;;5000129;28;20054;-61
2022/01/22 11:16:13;;;;;;;14.40;2.47;;;;;;;;;;5002249;28;20088;-61
2022/01/22 11:18:42;;;;;;;13.13;2.15;;;;;;;;;;5000665;28;20424;-62
2022/01/22 11:21:09;;;;;;;15.70;2.40;;;;;;;;;;5005536;28;20042;-61
2022/01/22 11:23:35;;;;;;;21.88;3.75;;;;;;;;;;5006588;28;20454;-61
2022/01/22 11:26:02;;;;;;;11.35;2.30;;;;;;;;;;5005524;28;20049;-62
2022/01/22 11:28:29;;;;;;;20.45;3.17;;;;;;;;;;5003640;28;20446;-61
2022/01/22 11:30:56;;;;;;;12.52;2.20;;;;;;;;;;5002787;28;20077;-62
2022/01/22 11:33:24;;;;;;;13.45;3.47;;;;;;;;;;5000692;28;20046;-62
2022/01/22 11:35:53;;;;;;;16.98;2.38;;;;;;;;;;5005827;28;20128;-62
2022/01/22 11:38:21;;;;;;;11.60;2.30;;;;;;;;;;5006405;28;20034;-62
2022/01/22 11:41:06;;;;;;;12.68;1.80;;;;;;;;;;5006270;28;20502;-61
2022/01/22 11:44:01;;;;;;;13.10;1.85;;;;;;;;;;5007747;28;20151;-61
2022/01/22 11:46:32;;;;;;;8.40;1.92;;;;;;;;;;5008146;28;20832;-62
2022/01/22 11:49:09;;;;;;;15.15;2.20;;;;;;;;;;5009028;28;20108;-62
2022/01/22 11:51:35;;;;;;;13.77;2.40;;;;;;;;;;5007253;28;20137;-62
2022/01/22 11:54:01;;;;;;;10.43;1.67;;;;;;;;;;5004526;28;20141;-62
2022/01/22 11:56:29;;;;;;;18.80;1.83;;;;;;;;;;5006377;28;20046;-62
2022/01/22 11:58:57;;;;;;;11.00;1.80;;;;;;;;;;5006823;28;20038;-62
2022/01/22 12:01:38;;;;;;;9.40;1.55;;;;;;;;;;5005484;28;20132;-62
2022/01/22 12:04:05;;;;;;;11.45;1.85;;;;;;;;;;5007120;28;20358;-62
2022/01/22 12:06:31;;;;;;;11.95;1.73;;;;;;;;;;5006799;28;20563;-62
2022/01/22 12:09:05;;;;;;;14.75;2.60;;;;;;;;;;5005182;28;20469;-62
2022/01/22 12:14:43;;;;;;;14.27;2.40;;;;;;;;;;5003973;28;20125;-65
2022/01/22 12:17:14;;;;;;;10.73;1.45;;;;;;;;;;5007019;28;20115;-64
2022/01/22 12:19:50;;;;;;;12.68;1.95;;;;;;;;;;5005399;28;20049;-64
2022/01/22 12:22:30;;;;;;;12.02;1.50;;;;;;;;;;5004479;28;20191;-63
2022/01/22 12:24:57;;;;;;;12.30;2.55;;;;;;;;;;5006320;28;20049;-63
2022/01/22 12:27:41;;;;;;;13.07;1.80;;;;;;;;;;5004023;28;20046;-63
2022/01/22 12:30:11;;;;;;;11.85;1.60;;;;;;;;;;5004628;28;20049;-63
2022/01/22 12:32:47;;;;;;;10.27;1.50;;;;;;;;;;5021057;28;20064;-63
2022/01/22 12:35:17;;;;;;;12.23;1.92;;;;;;;;;;5005738;28;20108;-63
2022/01/22 12:37:47;;;;;;;7.80;1.42;;;;;;;;;;5004466;28;20095;-63
2022/01/22 12:40:14;;;;;;;9.95;1.42;;;;;;;;;;5006765;28;20115;-63
2022/01/22 12:42:54;;;;;;;8.70;1.58;;;;;;;;;;5002886;28;20136;-64
2022/01/22 12:45:22;;;;;;;10.43;1.38;;;;;;;;;;5005481;28;20046;-63
2022/01/22 12:47:50;;;;;;;16.30;1.60;;;;;;;;;;5003876;28;20152;-63
2022/01/22 12:50:16;;;;;;;12.93;3.13;;;;;;;;;;5003738;28;20128;-63
2022/01/22 12:52:46;;;;;;;9.88;1.63;;;;;;;;;;5005879;28;20038;-63
2022/01/22 12:55:17;;;;;;;13.63;2.00;;;;;;;;;;5005070;28;20069;-63
2022/01/22 12:57:44;;;;;;;9.30;1.30;;;;;;;;;;5003311;28;20070;-63
2022/01/22 13:00:13;;;;;;;12.80;1.70;;;;;;;;;;5004310;28;20088;-63
2022/01/22 13:02:42;;;;;;;7.72;1.45;;;;;;;;;;5005882;28;20104;-62
2022/01/22 13:05:09;;;;;;;8.35;1.30;;;;;;;;;;5036385;28;20038;-62
2022/01/22 13:07:40;;;;;;;12.15;1.85;;;;;;;;;;5004697;28;20092;-63
2022/01/22 13:10:08;;;;;;;9.63;1.70;;;;;;;;;;5036717;28;20081;-62
2022/01/22 13:12:35;;;;;;;8.32;1.95;;;;;;;;;;5006184;28;20042;-62
2022/01/22 13:15:01;;;;;;;9.52;1.92;;;;;;;;;;5005750;28;20062;-62
2022/01/22 13:17:29;;;;;;;12.10;1.30;;;;;;;;;;5004813;28;20046;-63
2022/01/22 13:19:55;;;;;;;7.80;1.33;;;;;;;;;;5004321;28;20062;-62
2022/01/22 13:22:29;;;;;;;5.32;1.27;;;;;;;;;;5005053;28;20033;-62
2022/01/22 13:25:03;;;;;;;8.00;1.45;;;;;;;;;;5002797;28;20133;-62
2022/01/22 13:27:31;;;;;;;6.93;1.38;;;;;;;;;;5034599;28;20157;-62
2022/01/22 13:29:57;;;;;;;11.68;1.60;;;;;;;;;;5005770;28;20057;-62
2022/01/22 13:32:41;;;;;;;10.65;1.30;;;;;;;;;;5003821;28;20060;-63
2022/01/22 13:40:41;;;;;;;11.63;1.55;;;;;;;;;;5020120;28;20057;-62
2022/01/22 13:45:07;;;;;;;12.57;1.60;;;;;;;;;;5003544;28;20064;-64
2022/01/22 13:49:06;;;;;;;10.45;1.52;;;;;;;;;;5004238;28;20050;-64
2022/01/22 13:51:33;;;;;;;13.95;2.45;;;;;;;;;;5005879;28;20133;-62
2022/01/22 13:54:00;;;;;;;10.50;1.23;;;;;;;;;;5004744;28;20109;-62
2022/01/22 13:56:45;;;;;;;10.88;1.85;;;;;;;;;;5007142;28;20179;-64
2022/01/22 13:59:17;;;;;;;9.98;1.88;;;;;;;;;;5039039;28;20520;-62
2022/01/22 14:01:52;;;;;;;15.13;2.13;;;;;;;;;;5009013;28;20556;-62
2022/01/22 14:04:19;;;;;;;10.35;1.35;;;;;;;;;;5009729;28;20374;-62
2022/01/22 14:06:47;;;;;;;8.52;1.27;;;;;;;;;;5006253;28;20049;-62
2022/01/22 14:09:14;;;;;;;10.85;1.60;;;;;;;;;;5011259;28;20057;-62
2022/01/22 14:11:59;;;;;;;13.07;1.40;;;;;;;;;;5010031;28;20057;-62
2022/01/22 14:14:25;;;;;;;12.07;1.98;;;;;;;;;;5010069;28;20572;-62
2022/01/22 14:17:09;;;;;;;10.43;1.13;;;;;;;;;;5009879;28;20441;-62
2022/01/22 14:19:35;;;;;;;12.83;1.13;;;;;;;;;;5013838;28;20654;-62
2022/01/22 14:22:01;;;;;;;8.55;1.15;;;;;;;;;;5008259;28;20423;-61
2022/01/22 14:24:30;;;;;;;10.30;1.20;;;;;;;;;;5007265;28;20042;-62
2022/01/22 14:26:56;;;;;;;11.48;1.30;;;;;;;;;;5006307;28;20046;-62
2022/01/22 14:29:22;;;;;;;6.85;1.33;;;;;;;;;;5006420;28;20131;-62
2022/01/22 14:31:50;;;;;;;8.15;1.55;;;;;;;;;;5007497;28;20044;-62
2022/01/22 14:34:34;;;;;;;13.65;1.20;;;;;;;;;;5008115;28;20060;-61
2022/01/22 14:37:02;;;;;;;15.70;1.30;;;;;;;;;;5004776;28;20054;-62
2022/01/22 14:44:00;;;;;;;12.52;1.80;;;;;;;;;;5006764;28;20489;-64
2022/01/22 14:45:21;;;;;;;5.72;0.93;;;;;;;;;;5007102;28;20068;-63
2022/01/22 14:47:53;;;;;;;8.35;1.85;;;;;;;;;;5008036;28;20080;-62
2022/01/22 14:50:19;;;;;;;4.57;1.10;;;;;;;;;;5008342;28;20511;-67
2022/01/22 14:52:47;;;;;;;6.35;1.10;;;;;;;;;;5009962;28;20045;-64
2022/01/22 14:55:14;;;;;;;10.32;1.08;;;;;;;;;;5007854;28;20037;-66
2022/01/22 14:57:42;;;;;;;8.60;1.27;;;;;;;;;;5006073;28;20045;-63
2022/01/22 15:00:09;;;;;;;10.32;1.45;;;;;;;;;;5007815;28;20092;-63
2022/01/22 15:02:36;;;;;;;5.82;1.50;;;;;;;;;;5007468;28;20049;-69
2022/01/22 15:05:02;;;;;;;25.33;3.33;;;;;;;;;;5005454;28;20060;-63
2022/01/22 15:07:29;;;;;;;4.85;0.90;;;;;;;;;;5005865;28;20049;-63
2022/01/22 15:09:55;;;;;;;7.18;2.08;;;;;;;;;;5005917;28;21976;-62
2022/01/22 15:12:21;;;;;;;9.07;1.40;;;;;;;;;;5005981;28;20056;-62
2022/01/22 15:14:50;;;;;;;7.20;1.63;;;;;;;;;;5007282;28;20038;-61
2022/01/22 15:19:49;;;;;;;9.23;1.88;;;;;;;;;;5007045;28;20081;-61
2022/01/22 15:22:17;;;;;;;12.10;1.67;;;;;;;;;;5006659;28;20048;-62
2022/01/22 15:24:44;;;;;;;9.73;1.52;;;;;;;;;;5004517;28;20100;-63
2022/01/22 15:27:12;;;;;;;14.55;1.52;;;;;;;;;;5004652;28;20038;-62
2022/01/22 15:29:53;;;;;;;13.98;1.63;;;;;;;;;;5008452;28;20046;-62
2022/01/22 15:32:39;;;;;;;15.30;3.58;;;;;;;;;;5004435;28;20101;-61
2022/01/22 15:35:07;;;;;;;7.80;1.63;;;;;;;;;;5007044;28;20174;-61
2022/01/22 15:37:35;;;;;;;10.75;1.42;;;;;;;;;;5008743;28;20041;-61
2022/01/22 15:40:03;;;;;;;8.30;1.67;;;;;;;;;;5005398;28;20061;-61
2022/01/22 15:42:30;;;;;;;6.35;1.30;;;;;;;;;;5006709;28;20117;-61
2022/01/22 15:44:56;;;;;;;4.15;1.50;;;;;;;;;;5006077;28;20600;-61
2022/01/22 15:47:22;;;;;;;6.93;1.25;;;;;;;;;;5007323;28;20125;-61
2022/01/22 15:49:55;;;;;;;7.78;1.58;;;;;;;;;;5009209;28;20056;-61
2022/01/22 15:52:21;;;;;;;8.43;1.05;;;;;;;;;;5005861;28;20038;-61
2022/01/22 15:54:47;;;;;;;5.82;1.35;;;;;;;;;;5007431;28;20192;-61
2022/01/22 15:57:15;;;;;;;15.10;1.60;;;;;;;;;;5008843;28;20137;-61
2022/01/22 15:59:41;;;;;;;6.93;1.50;;;;;;;;;;5003668;28;20042;-61
2022/01/22 16:02:08;;;;;;;7.07;1.48;;;;;;;;;;5005804;28;20066;-66
2022/01/22 16:04:34;;;;;;;9.75;1.40;;;;;;;;;;5004360;28;20038;-61
2022/01/22 16:07:07;;;;;;;12.18;1.95;;;;;;;;;;5005464;28;20124;-61
2022/01/22 16:09:33;;;;;;;11.65;1.85;;;;;;;;;;5036441;28;20465;-61
2022/01/22 16:12:00;;;;;;;7.63;1.70;;;;;;;;;;5006731;28;20045;-61
2022/01/22 16:14:29;;;;;;;12.70;1.88;;;;;;;;;;5005220;28;20149;-61
2022/01/22 16:16:55;;;;;;;9.48;1.80;;;;;;;;;;5005549;28;20557;-61
2022/01/22 16:19:23;;;;;;;9.07;2.28;;;;;;;;;;5004360;28;20419;-61